createdAt,value
2018-07-25T00:00:06.457Z,10.60
2018-07-25T00:02:41.658Z,10.93
2018-07-25T00:05:16.953Z,10.03
2018-07-25T00:07:52.153Z,10.10
2018-07-25T00:10:32.743Z,10.77
2018-07-25T00:13:08.043Z,11.50
2018-07-25T00:15:43.041Z,10.00
2018-07-25T00:18:18.427Z,10.47
2018-07-25T00:20:53.616Z,11.90
2018-07-25T00:23:28.635Z,10.60
2018-07-25T00:26:03.692Z,10.80
2018-07-25T00:28:38.894Z,10.07
2018-07-25T00:31:14.107Z,10.47
2018-07-25T00:33:49.387Z,10.83
2018-07-25T00:36:24.467Z,11.60
2018-07-25T00:38:59.642Z,10.80
2018-07-25T00:41:34.846Z,9.90
2018-07-25T00:44:09.866Z,10.83
2018-07-25T00:46:44.985Z,11.10
2018-07-25T00:49:19.988Z,11.10
2018-07-25T00:51:55.166Z,10.67
2018-07-25T00:54:30.526Z,10.37
2018-07-25T00:57:05.787Z,10.10
2018-07-25T00:59:40.990Z,11.70
2018-07-25T01:02:16.284Z,11.47
2018-07-25T01:04:51.574Z,10.30
2018-07-25T01:07:26.758Z,10.67
2018-07-25T01:10:01.865Z,10.50
2018-07-25T01:12:37.654Z,11.03
2018-07-25T01:15:12.643Z,11.33
2018-07-25T01:17:47.686Z,10.40
2018-07-25T01:20:22.732Z,11.20
2018-07-25T01:22:58.013Z,12.03
2018-07-25T01:25:33.158Z,10.47
2018-07-25T01:28:08.179Z,11.00
2018-07-25T01:30:43.381Z,11.10
2018-07-25T01:33:18.427Z,11.50
2018-07-25T01:35:53.522Z,12.03
2018-07-25T01:38:28.769Z,11.60
2018-07-25T01:41:03.905Z,12.07
2018-07-25T01:43:39.163Z,10.80
2018-07-25T01:46:14.349Z,11.03
2018-07-25T01:48:49.575Z,11.57
2018-07-25T01:51:24.747Z,11.00
2018-07-25T01:53:59.965Z,12.10
2018-07-25T01:56:35.138Z,11.10
2018-07-25T01:59:10.302Z,12.97
2018-07-25T02:01:45.295Z,12.80
2018-07-25T02:04:20.483Z,11.77
2018-07-25T02:06:55.588Z,12.20
2018-07-25T02:09:30.824Z,11.93
2018-07-25T02:12:06.056Z,11.77
2018-07-25T02:14:41.164Z,12.10
2018-07-25T02:17:16.575Z,12.83
2018-07-25T02:19:51.825Z,11.40
2018-07-25T02:22:26.954Z,12.13
2018-07-25T02:25:02.134Z,12.23
2018-07-25T02:27:37.263Z,12.57
2018-07-25T02:30:12.442Z,12.03
2018-07-25T02:32:47.610Z,12.13
2018-07-25T02:35:22.911Z,13.03
2018-07-25T02:37:58.184Z,13.10
2018-07-25T02:40:33.283Z,11.80
2018-07-25T02:43:08.288Z,12.77
2018-07-25T02:45:45.318Z,12.60
2018-07-25T02:48:20.367Z,12.20
2018-07-25T02:50:55.670Z,12.27
2018-07-25T02:53:30.866Z,12.03
2018-07-25T02:56:05.998Z,13.53
2018-07-25T02:58:40.987Z,12.90
2018-07-25T03:01:16.196Z,13.27
2018-07-25T03:03:51.455Z,13.93
2018-07-25T03:06:26.683Z,12.60
2018-07-25T03:09:01.987Z,13.93
2018-07-25T03:11:37.199Z,13.50
2018-07-25T03:14:12.251Z,13.00
2018-07-25T03:16:47.431Z,12.73
2018-07-25T03:19:22.583Z,13.77
2018-07-25T03:21:57.681Z,13.23
2018-07-25T03:24:33.040Z,12.97
2018-07-25T03:27:08.242Z,12.93
2018-07-25T03:29:43.501Z,13.37
2018-07-25T03:32:18.694Z,13.70
2018-07-25T03:34:54.028Z,13.13
2018-07-25T03:37:29.015Z,13.20
2018-07-25T03:40:04.639Z,13.40
2018-07-25T03:42:39.786Z,12.20
2018-07-25T03:45:14.897Z,12.83
2018-07-25T03:47:50.030Z,12.30
2018-07-25T03:50:25.262Z,12.77
2018-07-25T03:53:00.286Z,12.43
2018-07-25T03:55:35.598Z,13.13
2018-07-25T03:58:10.811Z,13.10
2018-07-25T04:00:45.983Z,13.40
2018-07-25T04:03:21.052Z,12.77
2018-07-25T04:05:56.035Z,12.70
2018-07-25T04:08:31.135Z,12.60
2018-07-25T04:11:06.495Z,12.40
2018-07-25T04:13:41.538Z,12.77
2018-07-25T04:16:16.785Z,13.10
2018-07-25T04:18:51.858Z,12.70
2018-07-25T04:21:27.054Z,12.93
2018-07-25T04:24:02.332Z,12.70
2018-07-25T04:26:37.421Z,12.47
2018-07-25T04:29:12.553Z,13.27
2018-07-25T04:31:47.671Z,13.10
2018-07-25T04:34:22.929Z,13.23
2018-07-25T04:36:58.188Z,11.93
2018-07-25T04:39:33.171Z,11.37
2018-07-25T04:42:08.174Z,12.50
2018-07-25T04:44:43.394Z,12.23
2018-07-25T04:47:18.542Z,11.40
2018-07-25T04:49:53.522Z,12.23
2018-07-25T04:52:28.629Z,10.60
2018-07-25T04:55:03.759Z,11.90
2018-07-25T04:57:38.886Z,11.47
2018-07-25T05:00:14.075Z,12.30
2018-07-25T05:02:49.184Z,10.70
2018-07-25T05:05:24.463Z,11.20
2018-07-25T05:07:59.587Z,11.63
2018-07-25T05:10:34.851Z,10.93
2018-07-25T05:13:09.987Z,10.73
2018-07-25T05:15:45.022Z,11.60
2018-07-25T05:18:20.051Z,10.40
2018-07-25T05:20:55.294Z,10.80
2018-07-25T05:23:30.452Z,10.87
2018-07-25T05:26:06.274Z,9.90
2018-07-25T05:28:41.527Z,11.10
2018-07-25T05:31:16.821Z,10.00
2018-07-25T05:33:52.053Z,10.60
2018-07-25T05:36:27.322Z,11.27
2018-07-25T05:39:02.503Z,11.17
2018-07-25T05:41:37.640Z,11.50
2018-07-25T05:44:12.746Z,10.40
2018-07-25T05:46:47.766Z,10.50
2018-07-25T05:49:22.923Z,11.67
2018-07-25T05:51:58.078Z,11.40
2018-07-25T05:54:33.222Z,10.43
2018-07-25T05:57:08.402Z,10.53
2018-07-25T05:59:43.529Z,10.57
2018-07-25T06:02:18.811Z,10.90
2018-07-25T06:04:53.947Z,9.90
2018-07-25T06:07:29.059Z,9.93
2018-07-25T06:10:04.584Z,9.47
2018-07-25T06:12:39.831Z,10.50
2018-07-25T06:15:15.065Z,9.83
2018-07-25T06:17:50.211Z,9.40
2018-07-25T06:20:25.028Z,8.90
2018-07-25T06:23:00.166Z,9.63
2018-07-25T06:25:35.497Z,10.30
2018-07-25T06:28:11.790Z,9.83
2018-07-25T06:30:47.052Z,8.90
2018-07-25T06:33:22.254Z,9.87
2018-07-25T06:35:57.267Z,8.80
2018-07-25T06:38:32.383Z,8.40
2018-07-25T06:41:07.615Z,9.00
2018-07-25T06:43:42.824Z,8.50
2018-07-25T06:46:18.033Z,8.77
2018-07-25T06:48:53.235Z,7.63
2018-07-25T06:51:28.378Z,8.40
2018-07-25T06:54:03.678Z,7.73
2018-07-25T06:56:38.927Z,7.90
2018-07-25T06:59:14.091Z,8.87
2018-07-25T07:01:49.311Z,8.50
2018-07-25T07:04:24.560Z,8.07
2018-07-25T07:06:59.791Z,8.23
2018-07-25T07:09:34.967Z,7.70
2018-07-25T07:12:10.276Z,8.17
2018-07-25T07:14:45.375Z,8.20
2018-07-25T07:17:20.432Z,7.90
2018-07-25T07:19:55.609Z,8.53
2018-07-25T07:22:30.711Z,7.83
2018-07-25T07:25:05.935Z,8.17
2018-07-25T07:27:41.106Z,7.50
2018-07-25T07:30:16.207Z,7.93
2018-07-25T07:32:51.331Z,8.13
2018-07-25T07:35:26.562Z,7.53
2018-07-25T07:38:01.882Z,8.13
2018-07-25T07:40:37.363Z,7.30
2018-07-25T07:43:12.596Z,7.27
2018-07-25T07:45:47.695Z,7.67
2018-07-25T07:48:22.998Z,7.03
2018-07-25T07:50:58.206Z,7.90
2018-07-25T07:53:33.303Z,7.73
2018-07-25T07:56:08.587Z,7.60
2018-07-25T07:58:43.707Z,7.27
2018-07-25T08:01:18.749Z,7.40
2018-07-25T08:03:54.057Z,7.50
2018-07-25T08:06:29.275Z,7.50
2018-07-25T08:09:06.599Z,7.70
2018-07-25T08:11:41.775Z,7.37
2018-07-25T08:14:16.922Z,6.83
2018-07-25T08:16:52.183Z,8.53
2018-07-25T08:19:27.362Z,8.60
2018-07-25T08:22:02.640Z,7.30
2018-07-25T08:24:37.595Z,8.63
2018-07-25T08:27:12.684Z,8.90
2018-07-25T08:29:47.976Z,8.40
2018-07-25T08:32:23.232Z,8.60
2018-07-25T08:34:58.415Z,8.70
2018-07-25T08:37:33.594Z,10.83
2018-07-25T08:40:08.754Z,8.90
2018-07-25T08:42:44.018Z,7.73
2018-07-25T08:45:19.335Z,8.87
2018-07-25T08:47:54.425Z,8.80
2018-07-25T08:50:29.503Z,7.90
2018-07-25T08:53:04.611Z,8.23
2018-07-25T08:55:39.691Z,8.30
2018-07-25T08:58:14.670Z,7.80
2018-07-25T09:00:50.281Z,8.73
2018-07-25T09:03:25.646Z,8.10
2018-07-25T09:06:00.663Z,8.10
2018-07-25T09:08:35.735Z,9.27
2018-07-25T09:11:10.890Z,8.40
2018-07-25T09:13:46.092Z,9.00
2018-07-25T09:16:21.222Z,9.50
2018-07-25T09:18:56.636Z,8.50
2018-07-25T09:21:32.068Z,8.10
2018-07-25T09:24:07.112Z,9.30
2018-07-25T09:26:42.142Z,8.50
2018-07-25T09:29:17.174Z,8.87
2018-07-25T09:31:52.438Z,7.90
2018-07-25T09:34:28.883Z,7.70
2018-07-25T09:37:03.921Z,8.20
2018-07-25T09:39:39.098Z,7.80
2018-07-25T09:42:14.331Z,8.33
2018-07-25T09:44:49.466Z,9.27
2018-07-25T09:47:25.334Z,7.90
2018-07-25T09:50:00.492Z,7.63
2018-07-25T09:52:35.559Z,8.10
2018-07-25T09:55:11.479Z,8.90
2018-07-25T09:57:46.630Z,7.90
2018-07-25T10:00:27.128Z,7.90
2018-07-25T10:03:02.361Z,9.90
2018-07-25T10:05:37.367Z,8.40
2018-07-25T10:08:12.401Z,7.53
2018-07-25T10:10:47.426Z,7.53
2018-07-25T10:13:22.796Z,7.73
2018-07-25T10:15:57.868Z,8.10
2018-07-25T10:18:33.081Z,7.87
2018-07-25T10:21:08.303Z,8.23
2018-07-25T10:23:43.557Z,7.77
2018-07-25T10:26:18.883Z,7.07
2018-07-25T10:28:53.849Z,8.33
2018-07-25T10:31:29.090Z,7.10
2018-07-25T10:34:04.227Z,8.10
2018-07-25T10:36:39.280Z,7.67
2018-07-25T10:39:15.422Z,7.60
2018-07-25T10:41:50.579Z,7.10
2018-07-25T10:44:25.715Z,7.90
2018-07-25T10:47:00.952Z,7.77
2018-07-25T10:49:36.125Z,6.80
2018-07-25T10:52:11.265Z,7.00
2018-07-25T10:54:46.652Z,6.77
2018-07-25T10:57:21.935Z,7.27
2018-07-25T10:59:56.754Z,6.80
2018-07-25T11:02:31.815Z,6.53
2018-07-25T11:05:07.262Z,5.90
2018-07-25T11:07:42.268Z,5.90
2018-07-25T11:10:17.559Z,6.53
2018-07-25T11:12:52.881Z,6.10
2018-07-25T11:15:28.207Z,6.27
2018-07-25T11:18:03.271Z,5.90
2018-07-25T11:20:38.397Z,6.20
2018-07-25T11:23:13.649Z,6.00
2018-07-25T11:25:48.791Z,4.87
2018-07-25T11:28:24.370Z,5.63
2018-07-25T11:30:59.493Z,6.20
2018-07-25T11:33:34.607Z,6.60
2018-07-25T11:36:09.748Z,6.40
2018-07-25T11:38:44.905Z,6.73
2018-07-25T11:41:19.767Z,5.70
2018-07-25T11:43:54.839Z,5.77
2018-07-25T11:46:30.080Z,5.90
2018-07-25T11:49:05.470Z,5.47
2018-07-25T11:51:40.526Z,5.80
2018-07-25T11:54:15.735Z,5.33
2018-07-25T11:56:50.932Z,5.53
2018-07-25T11:59:26.272Z,4.63
2018-07-25T12:02:01.465Z,5.67
2018-07-25T12:04:36.655Z,4.97
2018-07-25T12:07:11.838Z,4.87
2018-07-25T12:09:46.978Z,6.10
2018-07-25T12:12:22.180Z,5.20
2018-07-25T12:14:57.191Z,4.83
2018-07-25T12:17:33.062Z,5.50
2018-07-25T12:20:08.327Z,5.00
2018-07-25T12:22:43.410Z,5.20
2018-07-25T12:25:18.489Z,5.43
2018-07-25T12:27:53.609Z,5.00
2018-07-25T12:30:28.557Z,4.90
2018-07-25T12:33:03.558Z,5.13
2018-07-25T12:35:38.599Z,5.63
2018-07-25T12:38:13.830Z,4.63
2018-07-25T12:40:49.095Z,4.30
2018-07-25T12:43:24.275Z,5.97
2018-07-25T12:45:59.497Z,6.17
2018-07-25T12:48:34.730Z,5.73
2018-07-25T12:51:10.265Z,5.63
2018-07-25T12:53:45.948Z,5.40
2018-07-25T12:56:20.898Z,4.37
2018-07-25T12:58:56.144Z,3.67
2018-07-25T13:01:31.425Z,4.87
2018-07-25T13:04:06.611Z,4.00
2018-07-25T13:06:41.755Z,4.70
2018-07-25T13:09:17.113Z,5.47
2018-07-25T13:11:52.203Z,4.80
2018-07-25T13:14:27.354Z,4.53
2018-07-25T13:17:02.552Z,4.60
2018-07-25T13:19:37.587Z,4.30
2018-07-25T13:22:12.783Z,4.70
2018-07-25T13:24:47.719Z,4.10
2018-07-25T13:27:24.056Z,3.90
2018-07-25T13:29:59.252Z,4.37
2018-07-25T13:32:34.461Z,3.90
2018-07-25T13:35:09.643Z,4.10
2018-07-25T13:37:44.774Z,3.83
2018-07-25T13:40:19.956Z,4.57
2018-07-25T13:42:54.999Z,4.20
2018-07-25T13:45:30.303Z,5.03
2018-07-25T13:48:05.786Z,4.80
2018-07-25T13:50:40.959Z,5.27
2018-07-25T13:53:16.183Z,4.77
2018-07-25T13:55:51.523Z,4.90
2018-07-25T13:58:26.649Z,4.70
2018-07-25T14:01:01.811Z,4.30
2018-07-25T14:03:36.952Z,3.87
2018-07-25T14:06:12.178Z,4.07
2018-07-25T14:08:47.432Z,4.70
2018-07-25T14:11:22.711Z,4.97
2018-07-25T14:13:58.824Z,4.40
2018-07-25T14:16:34.233Z,5.50
2018-07-25T14:19:09.395Z,5.90
2018-07-25T14:21:44.498Z,5.53
2018-07-25T14:24:19.761Z,5.77
2018-07-25T14:26:55.043Z,5.70
2018-07-25T14:29:30.275Z,5.10
2018-07-25T14:32:05.462Z,5.70
2018-07-25T14:34:40.655Z,5.00
2018-07-25T14:37:15.717Z,5.80
2018-07-25T14:39:51.754Z,5.10
2018-07-25T14:42:26.921Z,5.63
2018-07-25T14:45:03.136Z,5.10
2018-07-25T14:47:38.194Z,3.97
2018-07-25T14:50:13.267Z,4.33
2018-07-25T14:52:48.521Z,3.53
2018-07-25T14:55:23.690Z,4.33
2018-07-25T14:57:58.694Z,4.10
2018-07-25T15:00:33.745Z,4.17
2018-07-25T15:03:08.698Z,3.83
2018-07-25T15:05:43.903Z,4.63
2018-07-25T15:08:19.186Z,3.87
2018-07-25T15:10:54.482Z,4.07
2018-07-25T15:13:29.585Z,4.03
2018-07-25T15:16:04.986Z,3.83
2018-07-25T15:18:40.187Z,4.10
2018-07-25T15:21:16.277Z,4.67
2018-07-25T15:24:02.689Z,5.43
2018-07-25T15:26:37.798Z,4.60
2018-07-25T15:29:13.698Z,4.93
2018-07-25T15:31:48.770Z,4.50
2018-07-25T15:34:24.661Z,5.60
2018-07-25T15:36:59.828Z,5.57
2018-07-25T15:39:35.116Z,5.40
2018-07-25T15:42:10.323Z,5.00
2018-07-25T15:44:45.467Z,5.80
2018-07-25T15:47:20.491Z,5.13
2018-07-25T15:49:55.798Z,5.43
2018-07-25T15:52:30.989Z,5.73
2018-07-25T15:55:06.240Z,5.40
2018-07-25T15:57:42.007Z,5.83
2018-07-25T16:00:17.130Z,6.00
2018-07-25T16:02:52.304Z,6.20
2018-07-25T16:05:27.378Z,6.10
2018-07-25T16:08:03.499Z,6.40
2018-07-25T16:10:38.546Z,5.90
2018-07-25T16:13:13.624Z,5.87
2018-07-25T16:15:48.974Z,6.67
2018-07-25T16:18:24.108Z,6.20
2018-07-25T16:20:59.292Z,6.60
2018-07-25T16:23:34.570Z,6.57
2018-07-25T16:26:09.925Z,6.27
2018-07-25T16:28:45.122Z,6.60
2018-07-25T16:31:20.259Z,5.40
2018-07-25T16:33:55.518Z,6.30
2018-07-25T16:36:30.711Z,4.73
2018-07-25T16:39:08.920Z,4.57
2018-07-25T16:41:44.077Z,4.90
2018-07-25T16:44:19.214Z,4.43
2018-07-25T16:46:54.309Z,4.10
2018-07-25T16:49:29.760Z,5.40
2018-07-25T16:52:04.885Z,5.10
2018-07-25T16:54:40.023Z,8.00
2018-07-25T16:57:15.120Z,7.47
2018-07-25T16:59:50.714Z,6.90
2018-07-25T17:02:25.858Z,5.90
2018-07-25T17:05:01.148Z,6.10
2018-07-25T17:07:36.314Z,7.00
2018-07-25T17:10:11.348Z,7.23
2018-07-25T17:12:46.511Z,7.07
2018-07-25T17:15:21.539Z,7.07
2018-07-25T17:17:56.770Z,6.33
2018-07-25T17:20:32.205Z,6.57
2018-07-25T17:23:07.207Z,6.83
2018-07-25T17:25:42.498Z,6.20
2018-07-25T17:28:17.470Z,6.90
2018-07-25T17:30:52.567Z,6.90
2018-07-25T17:33:27.624Z,7.90
2018-07-25T17:36:02.700Z,7.37
2018-07-25T17:38:37.922Z,7.90
2018-07-25T17:41:12.991Z,7.37
2018-07-25T17:43:48.248Z,8.10
2018-07-25T17:46:23.541Z,8.90
2018-07-25T17:48:58.680Z,7.60
2018-07-25T17:51:33.886Z,8.73
2018-07-25T17:54:09.092Z,8.37
2018-07-25T17:56:43.979Z,8.20
2018-07-25T17:59:19.037Z,8.13
2018-07-25T18:01:54.382Z,8.60
2018-07-25T18:04:29.429Z,8.90
2018-07-25T18:07:04.650Z,8.57
2018-07-25T18:09:39.462Z,8.60
2018-07-25T18:12:14.462Z,7.83
2018-07-25T18:14:49.603Z,7.50
2018-07-25T18:17:26.378Z,8.30
2018-07-25T18:20:01.392Z,8.90
2018-07-25T18:22:36.679Z,8.77
2018-07-25T18:25:11.743Z,7.43
2018-07-25T18:27:46.676Z,7.83
2018-07-25T18:30:21.679Z,7.23
2018-07-25T18:32:56.824Z,8.93
2018-07-25T18:35:32.084Z,9.60
2018-07-25T18:38:07.350Z,9.27
2018-07-25T18:40:42.597Z,8.90
2018-07-25T18:43:17.846Z,8.37
2018-07-25T18:45:53.004Z,8.90
2018-07-25T18:48:28.270Z,8.20
2018-07-25T18:51:03.445Z,9.00
2018-07-25T18:53:38.935Z,8.70
2018-07-25T18:56:14.175Z,8.17
2018-07-25T18:58:49.648Z,8.23
2018-07-25T19:01:24.897Z,8.20
2018-07-25T19:04:00.168Z,7.07
2018-07-25T19:06:36.178Z,8.00
2018-07-25T19:09:14.758Z,8.47
2018-07-25T19:11:49.832Z,7.43
2018-07-25T19:14:30.481Z,7.10
2018-07-25T19:17:05.811Z,7.53
2018-07-25T19:19:40.812Z,6.83
2018-07-25T19:22:15.825Z,7.47
2018-07-25T19:24:50.982Z,6.90
2018-07-25T19:27:27.099Z,6.93
2018-07-25T19:30:02.312Z,7.87
2018-07-25T19:32:37.693Z,8.10
2018-07-25T19:35:12.971Z,7.07
2018-07-25T19:37:48.055Z,6.90
2018-07-25T19:40:23.068Z,7.10
2018-07-25T19:42:58.270Z,7.27
2018-07-25T19:45:33.114Z,7.80
2018-07-25T19:48:08.227Z,7.10
2018-07-25T19:50:43.292Z,6.80
2018-07-25T19:53:18.401Z,7.30
2018-07-25T19:55:53.552Z,6.67
2018-07-25T19:58:28.801Z,6.53
2018-07-25T20:01:04.041Z,7.03
2018-07-25T20:03:39.195Z,7.03
2018-07-25T20:06:14.447Z,7.63
2018-07-25T20:08:49.751Z,6.73
2018-07-25T20:11:24.811Z,6.70
2018-07-25T20:14:05.338Z,7.00
2018-07-25T20:16:40.706Z,7.73
2018-07-25T20:19:16.011Z,6.87
2018-07-25T20:21:51.043Z,7.47
2018-07-25T20:24:26.374Z,7.70
2018-07-25T20:27:01.485Z,7.53
2018-07-25T20:29:36.741Z,7.30
2018-07-25T20:32:12.091Z,7.60
2018-07-25T20:34:47.174Z,7.27
2018-07-25T20:37:22.472Z,7.67
2018-07-25T20:39:57.638Z,7.87
2018-07-25T20:42:32.909Z,7.60
2018-07-25T20:45:08.164Z,8.37
2018-07-25T20:47:43.652Z,8.00
2018-07-25T20:50:18.878Z,8.37
2018-07-25T20:52:54.039Z,7.73
2018-07-25T20:55:29.402Z,7.50
2018-07-25T20:58:05.179Z,7.67
2018-07-25T21:00:40.385Z,8.23
2018-07-25T21:03:15.550Z,7.47
2018-07-25T21:05:50.720Z,7.80
2018-07-25T21:08:25.793Z,7.77
2018-07-25T21:11:00.903Z,7.40
2018-07-25T21:13:36.331Z,8.47
2018-07-25T21:16:11.626Z,7.47
2018-07-25T21:18:46.828Z,8.30
2018-07-25T21:21:21.997Z,7.83
2018-07-25T21:23:57.027Z,8.43
2018-07-25T21:26:32.268Z,8.80
2018-07-25T21:29:07.604Z,8.50
2018-07-25T21:31:42.753Z,7.70
2018-07-25T21:34:17.929Z,7.80
2018-07-25T21:36:53.178Z,8.30
2018-07-25T21:39:29.538Z,9.30
2018-07-25T21:42:04.811Z,8.33
2018-07-25T21:44:40.047Z,9.30
2018-07-25T21:47:15.321Z,9.30
2018-07-25T21:49:50.374Z,9.07
2018-07-25T21:52:25.399Z,9.17
2018-07-25T21:55:00.562Z,8.90
2018-07-25T21:57:35.771Z,9.57
2018-07-25T22:00:14.527Z,9.30
2018-07-25T22:02:49.616Z,8.63
2018-07-25T22:05:24.858Z,9.87
2018-07-25T22:07:59.996Z,9.00
2018-07-25T22:10:35.125Z,9.63
2018-07-25T22:13:10.479Z,9.10
2018-07-25T22:15:45.728Z,9.50
2018-07-25T22:18:21.704Z,9.10
2018-07-25T22:20:56.912Z,9.53
2018-07-25T22:23:32.214Z,9.30
2018-07-25T22:26:07.409Z,9.30
2018-07-25T22:28:42.642Z,8.80
2018-07-25T22:31:17.855Z,9.23
2018-07-25T22:33:52.972Z,10.40
2018-07-25T22:36:28.200Z,9.90
2018-07-25T22:39:04.100Z,8.27
2018-07-25T22:41:39.353Z,8.87
2018-07-25T22:44:14.531Z,9.07
2018-07-25T22:46:49.598Z,9.33
2018-07-25T22:49:24.812Z,8.77
2018-07-25T22:52:00.123Z,9.00
2018-07-25T22:54:35.223Z,8.67
2018-07-25T22:57:10.558Z,9.40
2018-07-25T22:59:45.619Z,8.37
2018-07-25T23:02:20.599Z,9.43
2018-07-25T23:04:55.830Z,9.07
2018-07-25T23:07:30.948Z,8.53
2018-07-25T23:10:05.950Z,8.47
2018-07-25T23:12:41.222Z,8.73
2018-07-25T23:15:16.407Z,9.07
2018-07-25T23:17:51.930Z,8.13
2018-07-25T23:20:27.125Z,8.20
2018-07-25T23:23:02.370Z,8.23
2018-07-25T23:25:37.335Z,8.37
2018-07-25T23:28:12.299Z,8.17
2018-07-25T23:30:47.327Z,7.50
2018-07-25T23:33:22.078Z,8.03
2018-07-25T23:35:57.061Z,7.93
2018-07-25T23:38:32.197Z,7.90
2018-07-25T23:41:07.513Z,7.87
2018-07-25T23:43:42.683Z,8.40
2018-07-25T23:46:17.922Z,8.57
2018-07-25T23:48:53.063Z,8.00
2018-07-25T23:51:28.239Z,8.27
2018-07-25T23:54:03.376Z,8.07
2018-07-25T23:56:38.550Z,8.30
2018-07-25T23:59:13.591Z,8.17
